Time;durP1;ratioP1;P1;durP2;ratioP2;P2;SDS_P1;SDS_P2;PMS_P1;PMS_P2;Temp;Humidity;BMP_temperature;BMP_pressure;BME280_temperature;BME280_humidity;BME280_pressure;Samples;Min_cycle;Max_cycle;Signal;HPM_P1;HPM_P2
2021/06/10 00:01:30;;;;;;;2.85;1.42;;;;;;;20.34;68.04;100982.28;4420698;32;20067;-76
2021/06/10 00:03:55;;;;;;;6.97;1.30;;;;;;;20.37;67.90;100987.00;4413666;32;20038;-77
2021/06/10 00:06:21;;;;;;;2.58;1.25;;;;;;;20.39;67.80;100982.34;4419041;32;20073;-75
2021/06/10 00:08:47;;;;;;;2.62;1.27;;;;;;;20.36;67.96;100976.84;4413938;32;20079;-77
2021/06/10 00:11:13;;;;;;;2.53;1.40;;;;;;;20.29;68.21;100965.84;4420021;32;20054;-76
2021/06/10 00:13:39;;;;;;;4.18;1.80;;;;;;;20.28;68.16;100976.47;4421631;32;20097;-77
2021/06/10 00:16:04;;;;;;;1.75;1.23;;;;;;;20.28;68.32;100975.72;4420220;32;20472;-75
2021/06/10 00:18:30;;;;;;;3.35;1.50;;;;;;;20.26;68.45;100979.06;4418881;32;20164;-76
2021/06/10 00:20:56;;;;;;;1.83;1.12;;;;;;;20.24;68.45;100975.13;4419582;32;20037;-77
2021/06/10 00:23:22;;;;;;;1.98;1.33;;;;;;;20.19;68.72;100976.63;4419910;32;20124;-76
2021/06/10 00:25:47;;;;;;;2.50;1.30;;;;;;;20.17;68.83;100979.19;4422053;32;20549;-78
2021/06/10 00:28:14;;;;;;;2.28;1.12;;;;;;;20.13;69.12;100987.22;4424461;32;20045;-75
2021/06/10 00:30:40;;;;;;;1.95;1.23;;;;;;;20.07;69.39;100988.38;4418482;32;20052;-78
2021/06/10 00:33:07;;;;;;;2.83;1.10;;;;;;;20.06;69.40;100986.81;4412958;32;20124;-78
2021/06/10 00:35:34;;;;;;;2.95;1.12;;;;;;;20.06;69.42;100981.88;4420431;32;20076;-75
2021/06/10 00:38:00;;;;;;;3.47;1.33;;;;;;;20.12;69.31;100974.19;4420073;32;20053;-76
2021/06/10 00:40:29;;;;;;;1.60;1.00;;;;;;;20.17;69.08;100973.50;4419954;32;20033;-78
2021/06/10 00:42:55;;;;;;;2.42;1.08;;;;;;;20.39;68.45;100975.84;4418229;32;20029;-76
2021/06/10 00:45:22;;;;;;;1.67;1.20;;;;;;;20.49;67.93;100980.13;4424818;32;20077;-75
2021/06/10 00:47:50;;;;;;;3.30;1.10;;;;;;;20.60;67.49;100972.47;4421859;32;20401;-76
2021/06/10 00:50:19;;;;;;;2.78;0.93;;;;;;;20.69;67.00;100974.38;4420013;32;20034;-76
2021/06/10 00:52:47;;;;;;;1.17;0.80;;;;;;;20.76;66.77;100965.34;4423949;32;20077;-76
2021/06/10 00:55:14;;;;;;;1.95;0.90;;;;;;;20.89;66.12;100960.06;4420560;32;20094;-77
2021/06/10 00:57:40;;;;;;;2.70;0.85;;;;;;;21.00;65.80;100955.25;4419873;32;20050;-75
2021/06/10 01:00:09;;;;;;;1.00;0.90;;;;;;;20.95;65.87;100952.31;4418646;32;20034;-77
2021/06/10 01:02:34;;;;;;;2.00;0.90;;;;;;;20.91;66.06;100960.31;4419953;32;20030;-77
2021/06/10 01:05:00;;;;;;;1.60;0.73;;;;;;;20.92;65.85;100954.09;4421139;32;20093;-76
2021/06/10 01:10:33;;;;;;;1.98;0.50;;;;;;;21.53;64.07;100955.44;4424597;31;851169;-76
2021/06/10 01:13:08;;;;;;;3.53;0.62;;;;;;;21.53;64.07;100955.44;4445236;32;20193;-76
2021/06/10 01:15:40;;;;;;;2.42;0.70;;;;;;;21.23;64.17;100957.00;4453113;32;20104;-76
2021/06/10 01:18:06;;;;;;;0.57;0.50;;;;;;;21.25;64.25;100954.44;4449542;32;20093;-76
2021/06/10 01:20:33;;;;;;;1.23;0.50;;;;;;;21.01;64.87;100961.75;4448296;32;20079;-75
2021/06/10 01:23:12;;;;;;;1.35;0.40;;;;;;;21.09;64.10;100962.87;4448160;32;20062;-76
2021/06/10 01:26:18;;;;;;;1.52;0.50;;;;;;;20.84;65.25;100957.91;4445162;32;20078;-76
2021/06/10 01:28:46;;;;;;;0.57;0.40;;;;;;;20.81;65.54;100959.72;4452137;32;20073;-76
2021/06/10 01:31:14;;;;;;;2.15;0.60;;;;;;;20.62;65.54;100963.41;4449950;32;20077;-77
2021/06/10 01:33:45;;;;;;;0.95;0.62;;;;;;;20.64;65.61;100964.44;4454854;32;20055;-76
2021/06/10 01:36:16;;;;;;;2.78;0.50;;;;;;;20.75;65.29;100969.50;4455540;32;20410;-76
2021/06/10 01:38:46;;;;;;;0.98;0.50;;;;;;;20.72;65.20;100976.25;4448860;32;20195;-75
2021/06/10 01:41:12;;;;;;;1.23;0.50;;;;;;;20.71;64.87;100983.25;4449285;32;20073;-77
2021/06/10 01:43:41;;;;;;;0.57;0.50;;;;;;;20.76;64.81;100991.09;4447784;32;20088;-76
2021/06/10 01:46:11;;;;;;;1.20;0.47;;;;;;;20.75;64.45;100972.37;4448031;32;20025;-76
2021/06/10 01:48:38;;;;;;;0.50;0.40;;;;;;;20.70;64.14;100975.94;4453338;32;20069;-77
2021/06/10 01:51:06;;;;;;;0.57;0.50;;;;;;;20.77;64.04;100984.09;4454108;32;20025;-77
2021/06/10 01:53:36;;;;;;;2.15;0.45;;;;;;;20.83;63.61;100993.53;4449518;32;20089;-77
2021/06/10 01:56:03;;;;;;;1.10;0.50;;;;;;;20.80;63.60;100994.53;4447075;32;20398;-77
2021/06/10 01:58:30;;;;;;;0.95;0.60;;;;;;;20.94;63.09;101000.19;4446285;32;20041;-76
2021/06/10 02:00:56;;;;;;;0.77;0.47;;;;;;;20.80;63.22;100991.69;4450793;32;20428;-74
2021/06/10 02:03:23;;;;;;;0.45;0.37;;;;;;;20.84;63.07;100993.03;4450564;32;20049;-77
2021/06/10 02:05:50;;;;;;;0.85;0.40;;;;;;;20.89;62.81;100980.84;4447967;32;20025;-77
2021/06/10 02:08:19;;;;;;;0.65;0.47;;;;;;;20.97;62.62;100986.94;4448362;32;20647;-78
2021/06/10 02:10:49;;;;;;;1.25;0.62;;;;;;;20.87;62.66;100980.59;4444916;32;20045;-75
2021/06/10 02:13:17;;;;;;;0.68;0.40;;;;;;;20.91;62.63;100980.34;4449252;32;20069;-76
2021/06/10 02:15:44;;;;;;;1.00;0.70;;;;;;;21.14;62.09;100979.31;4448658;32;20085;-77
2021/06/10 02:18:12;;;;;;;0.65;0.60;;;;;;;21.08;62.24;100979.25;4441964;32;20044;-77
2021/06/10 02:20:38;;;;;;;0.57;0.40;;;;;;;21.11;62.29;100978.25;4442038;32;20064;-76
2021/06/10 02:23:03;;;;;;;0.50;0.50;;;;;;;21.18;62.00;100980.66;4434663;32;20110;-77
2021/06/10 02:25:29;;;;;;;0.60;0.60;;;;;;;21.12;62.37;100979.03;4440736;32;20037;-75
2021/06/10 02:27:55;;;;;;;0.73;0.50;;;;;;;21.02;62.79;100981.25;4439410;32;20033;-76
2021/06/10 02:30:21;;;;;;;0.60;0.60;;;;;;;21.06;62.82;100975.31;4439090;32;20746;-76
2021/06/10 02:32:46;;;;;;;1.35;0.57;;;;;;;20.87;63.32;100971.22;4436419;32;20092;-76
2021/06/10 02:35:13;;;;;;;0.65;0.55;;;;;;;20.91;63.35;100975.41;4439279;32;20414;-76
2021/06/10 02:37:42;;;;;;;0.60;0.32;;;;;;;20.92;62.89;100974.12;4437334;32;20075;-75
2021/06/10 02:40:12;;;;;;;0.45;0.30;;;;;;;20.86;62.98;100967.56;4438141;32;20153;-76
2021/06/10 02:42:38;;;;;;;1.12;0.45;;;;;;;20.91;63.00;100971.75;4438452;32;20053;-77
2021/06/10 02:45:06;;;;;;;0.52;0.30;;;;;;;20.78;63.36;100975.03;4437915;32;20041;-76
2021/06/10 02:47:33;;;;;;;0.85;0.40;;;;;;;20.77;63.19;100970.56;4437907;32;20167;-76
2021/06/10 02:50:00;;;;;;;1.23;0.40;;;;;;;20.77;63.48;100964.09;4437697;32;20049;-76
2021/06/10 02:52:27;;;;;;;0.47;0.30;;;;;;;20.81;63.28;100953.19;4441287;32;20096;-76
2021/06/10 02:54:54;;;;;;;0.30;0.30;;;;;;;20.79;63.22;100967.22;4438112;32;20029;-76
2021/06/10 02:57:21;;;;;;;1.85;0.30;;;;;;;20.82;62.81;100963.34;4435976;32;20099;-76
2021/06/10 02:59:48;;;;;;;0.43;0.20;;;;;;;20.85;62.66;100957.41;4437603;32;20083;-76
2021/06/10 03:02:15;;;;;;;1.65;0.30;;;;;;;20.87;62.81;100957.69;4435422;32;20075;-76
2021/06/10 03:04:43;;;;;;;1.95;0.40;;;;;;;20.89;62.62;100957.97;4435847;32;20076;-75
2021/06/10 03:07:18;;;;;;;0.28;0.28;;;;;;;21.05;62.27;100950.88;4435524;32;20072;-76
2021/06/10 03:09:47;;;;;;;0.32;0.30;;;;;;;21.15;61.66;100949.41;4433901;32;20133;-76
2021/06/10 03:12:16;;;;;;;0.73;0.32;;;;;;;21.10;61.70;100959.50;4437515;32;20074;-75
2021/06/10 03:14:43;;;;;;;0.60;0.40;;;;;;;21.07;61.88;100954.00;4436540;32;20033;-76
2021/06/10 03:17:10;;;;;;;0.40;0.30;;;;;;;21.05;61.73;100948.00;4436407;32;20289;-76
2021/06/10 03:19:36;;;;;;;1.83;0.35;;;;;;;21.06;61.68;100955.28;4436856;32;20426;-75
2021/06/10 03:22:03;;;;;;;0.80;0.45;;;;;;;21.10;61.52;100950.91;4436552;32;20484;-76
2021/06/10 03:24:30;;;;;;;1.30;0.40;;;;;;;20.93;62.34;100947.06;4447329;32;20056;-75
2021/06/10 03:26:56;;;;;;;0.45;0.30;;;;;;;20.90;62.18;100950.16;4437627;32;20488;-76
2021/06/10 03:29:23;;;;;;;0.47;0.40;;;;;;;20.89;62.39;100942.88;4436854;32;20041;-75
2021/06/10 03:31:50;;;;;;;1.00;0.40;;;;;;;20.84;62.64;100938.69;4434943;32;20033;-77
2021/06/10 03:34:18;;;;;;;0.60;0.32;;;;;;;20.87;62.66;100937.66;4437953;32;20072;-75
2021/06/10 03:36:44;;;;;;;0.50;0.43;;;;;;;20.94;62.52;100934.38;4435415;32;20037;-76
2021/06/10 03:39:11;;;;;;;0.30;0.30;;;;;;;20.90;62.22;100939.50;4437322;32;20478;-76
2021/06/10 03:41:39;;;;;;;1.48;0.70;;;;;;;20.95;61.95;100933.09;4437757;32;20136;-76
2021/06/10 03:44:07;;;;;;;0.30;0.30;;;;;;;20.93;61.77;100932.00;4438112;32;20072;-75
2021/06/10 03:46:34;;;;;;;0.40;0.30;;;;;;;21.05;61.40;100943.06;4436351;32;20021;-76
2021/06/10 03:49:00;;;;;;;1.15;0.35;;;;;;;21.09;61.38;100931.38;4436612;32;20082;-76
2021/06/10 03:51:26;;;;;;;1.33;0.32;;;;;;;20.94;61.77;100933.56;4432833;32;20479;-77
2021/06/10 03:53:55;;;;;;;0.93;0.45;;;;;;;20.88;61.70;100927.78;4439420;32;20021;-76
2021/06/10 03:56:21;;;;;;;1.00;0.47;;;;;;;20.95;61.35;100930.22;4436704;32;20339;-75
2021/06/10 03:58:47;;;;;;;0.90;0.43;;;;;;;20.89;61.90;100925.72;4437170;32;20522;-75
2021/06/10 04:01:13;;;;;;;1.23;0.50;;;;;;;20.86;61.73;100921.78;4436284;32;20414;-76
2021/06/10 04:03:39;;;;;;;0.60;0.60;;;;;;;20.86;61.53;100929.59;4434990;32;20056;-75
2021/06/10 04:06:05;;;;;;;2.20;0.60;;;;;;;20.70;62.16;100928.13;4434234;32;20036;-75
2021/06/10 04:08:31;;;;;;;0.70;0.50;;;;;;;20.78;61.96;100929.25;4429547;32;20134;-75
2021/06/10 04:10:57;;;;;;;1.60;0.50;;;;;;;20.60;62.60;100931.63;4431897;32;20524;-76
2021/06/10 04:13:23;;;;;;;4.07;0.60;;;;;;;20.53;62.66;100927.16;4433729;32;20053;-76
2021/06/10 04:15:49;;;;;;;2.25;0.55;;;;;;;20.42;63.04;100926.22;4439569;32;20081;-75
2021/06/10 04:18:18;;;;;;;1.05;0.50;;;;;;;20.35;63.21;100926.69;4440058;32;20093;-76
2021/06/10 04:20:47;;;;;;;1.87;0.43;;;;;;;20.15;63.75;100935.28;4434180;32;20073;-75
2021/06/10 04:23:12;;;;;;;0.52;0.40;;;;;;;20.18;63.85;100932.19;4436122;32;20034;-76
2021/06/10 04:25:38;;;;;;;0.47;0.40;;;;;;;20.09;64.08;100938.00;4437335;32;20099;-77
2021/06/10 04:28:04;;;;;;;2.37;0.57;;;;;;;20.20;63.58;100934.53;4431530;32;20048;-75
2021/06/10 04:30:30;;;;;;;0.73;0.50;;;;;;;20.21;63.63;100941.81;4438450;32;20081;-75
2021/06/10 04:32:55;;;;;;;2.08;0.60;;;;;;;20.26;63.38;100947.62;4419559;32;20391;-77
2021/06/10 04:35:21;;;;;;;0.60;0.43;;;;;;;20.40;62.96;100957.41;4435808;32;20437;-76
2021/06/10 04:37:47;;;;;;;2.28;0.50;;;;;;;20.38;62.95;100954.25;4437006;32;20108;-75
2021/06/10 04:40:13;;;;;;;1.87;0.40;;;;;;;20.53;62.61;100946.38;4437698;32;20134;-76
2021/06/10 04:42:39;;;;;;;0.62;0.50;;;;;;;20.68;61.91;100944.97;4436641;32;20032;-77
2021/06/10 04:45:05;;;;;;;3.92;0.77;;;;;;;20.77;61.69;100947.69;4438193;32;20056;-75
2021/06/10 04:47:31;;;;;;;2.62;0.50;;;;;;;20.91;61.51;100951.72;4436691;32;20022;-76
2021/06/10 04:49:56;;;;;;;0.70;0.50;;;;;;;20.90;61.40;100950.94;4436278;32;20049;-76
2021/06/10 04:52:22;;;;;;;1.37;0.52;;;;;;;21.07;60.82;100954.00;4434712;32;20135;-77
2021/06/10 04:54:48;;;;;;;2.58;0.62;;;;;;;21.08;60.87;100959.22;4434989;32;20041;-76
2021/06/10 04:57:13;;;;;;;2.47;0.60;;;;;;;21.22;60.42;100954.66;4439316;32;20155;-76
2021/06/10 04:59:39;;;;;;;1.30;0.40;;;;;;;21.25;60.43;100959.37;4436381;32;20080;-75
2021/06/10 05:02:05;;;;;;;0.90;0.52;;;;;;;21.30;60.08;100968.00;4438980;32;20488;-76
2021/06/10 05:04:32;;;;;;;1.15;0.52;;;;;;;21.22;60.44;100968.97;4434721;32;20044;-77
2021/06/10 05:06:57;;;;;;;3.12;0.45;;;;;;;21.61;59.25;100968.03;4436987;32;20097;-76
2021/06/10 05:09:23;;;;;;;1.65;0.50;;;;;;;21.85;58.35;100981.22;4433759;32;20105;-75
2021/06/10 05:11:49;;;;;;;1.60;0.60;;;;;;;21.94;58.18;100978.16;4433039;32;20073;-77
2021/06/10 05:14:16;;;;;;;0.45;0.40;;;;;;;22.14;57.29;100980.88;4433722;32;20029;-75
2021/06/10 05:16:42;;;;;;;0.30;0.30;;;;;;;22.27;56.87;100981.97;4442243;32;20129;-76
2021/06/10 05:19:08;;;;;;;0.40;0.30;;;;;;;22.28;56.42;100991.38;4437587;32;20427;-75
2021/06/10 05:21:34;;;;;;;1.87;0.60;;;;;;;22.43;56.05;100984.12;4437341;32;20073;-77
2021/06/10 05:24:00;;;;;;;5.25;0.40;;;;;;;22.38;55.68;100992.72;4433513;32;20140;-76
2021/06/10 05:26:25;;;;;;;0.95;0.52;;;;;;;22.28;56.17;100997.13;4435625;32;20455;-76
2021/06/10 05:28:51;;;;;;;0.70;0.60;;;;;;;22.30;56.00;100989.56;4437392;32;20113;-75
2021/06/10 05:31:17;;;;;;;1.55;0.98;;;;;;;22.25;56.25;100992.41;4436821;32;20480;-76
2021/06/10 05:33:42;;;;;;;1.23;0.73;;;;;;;22.39;55.95;100989.34;4438978;32;20433;-75
2021/06/10 05:36:08;;;;;;;1.05;0.60;;;;;;;22.40;56.12;100993.75;4434669;32;20108;-76
2021/06/10 05:38:35;;;;;;;0.98;0.70;;;;;;;22.36;55.90;100998.97;4432743;32;20030;-77
2021/06/10 05:41:01;;;;;;;0.73;0.62;;;;;;;22.33;55.79;100993.50;4436333;32;20037;-78
2021/06/10 05:43:26;;;;;;;1.55;0.50;;;;;;;22.39;55.90;100988.53;4439415;32;20116;-75
2021/06/10 05:45:52;;;;;;;1.92;1.05;;;;;;;22.43;55.81;100997.72;4436907;32;20429;-75
2021/06/10 05:48:18;;;;;;;1.40;0.70;;;;;;;22.47;55.86;101001.09;4434652;32;20156;-77
2021/06/10 05:50:45;;;;;;;2.45;0.95;;;;;;;22.53;55.54;100996.22;4434905;32;20355;-75
2021/06/10 05:53:11;;;;;;;0.80;0.70;;;;;;;22.57;55.37;101003.28;4435463;32;20132;-75
2021/06/10 05:55:38;;;;;;;3.05;1.05;;;;;;;22.65;55.30;101006.44;4438382;32;20107;-76
2021/06/10 05:58:04;;;;;;;4.57;1.08;;;;;;;22.67;55.46;101012.44;4437290;32;20037;-77
2021/06/10 06:00:30;;;;;;;3.90;0.90;;;;;;;22.81;55.02;101002.84;4436347;32;20116;-75
2021/06/10 06:02:57;;;;;;;1.25;1.05;;;;;;;22.63;55.46;101009.81;4439440;32;20046;-77
2021/06/10 06:05:22;;;;;;;4.28;0.93;;;;;;;22.69;55.44;101006.97;4437871;32;20137;-77
2021/06/10 06:07:49;;;;;;;2.10;0.98;;;;;;;22.65;55.34;101009.31;4438584;32;20049;-77
2021/06/10 06:10:17;;;;;;;1.83;1.05;;;;;;;22.70;55.13;101006.44;4436155;32;20082;-77
2021/06/10 06:12:44;;;;;;;4.85;1.10;;;;;;;22.78;54.99;101012.47;4437315;32;20068;-77
2021/06/10 06:15:11;;;;;;;1.12;0.88;;;;;;;22.73;54.92;101013.25;4437150;32;20082;-77
2021/06/10 06:17:36;;;;;;;2.37;1.10;;;;;;;22.66;55.05;101010.88;4439459;32;20069;-76
2021/06/10 06:20:03;;;;;;;1.75;1.23;;;;;;;22.58;55.08;101019.19;4435204;32;20080;-78
2021/06/10 06:22:29;;;;;;;1.25;1.00;;;;;;;22.60;55.21;101016.59;4439014;32;20071;-77
2021/06/10 06:24:55;;;;;;;1.60;1.23;;;;;;;22.56;55.38;101009.53;4439817;32;20076;-77
2021/06/10 06:27:22;;;;;;;2.03;1.02;;;;;;;22.53;55.55;101010.56;4437664;32;20400;-76
2021/06/10 06:29:47;;;;;;;2.58;1.12;;;;;;;22.47;55.77;101024.06;4438900;32;20080;-78
2021/06/10 06:32:13;;;;;;;1.40;1.10;;;;;;;22.59;55.39;101020.75;4433299;32;20071;-79
2021/06/10 06:34:38;;;;;;;2.15;1.12;;;;;;;22.48;55.88;101022.75;4429398;32;20428;-76
2021/06/10 06:37:05;;;;;;;2.15;0.93;;;;;;;22.61;55.15;101020.25;4433042;32;20103;-79
2021/06/10 06:39:31;;;;;;;2.35;1.27;;;;;;;22.77;54.84;101023.16;4434494;32;20465;-77
2021/06/10 06:41:57;;;;;;;1.48;0.95;;;;;;;22.58;55.25;101024.91;4429963;32;20183;-75
2021/06/10 06:44:23;;;;;;;2.78;1.00;;;;;;;22.62;55.16;101028.34;4428473;32;20089;-76
2021/06/10 06:46:49;;;;;;;3.12;0.90;;;;;;;22.74;54.91;101029.94;4428838;32;20898;-76
2021/06/10 06:49:14;;;;;;;3.17;1.25;;;;;;;22.58;55.06;101032.75;4419857;32;20046;-73
2021/06/10 06:51:41;;;;;;;2.60;1.92;;;;;;;22.30;56.01;101031.81;4429050;32;20085;-75
2021/06/10 06:54:10;;;;;;;5.68;1.52;;;;;;;22.54;55.65;101035.84;4430304;32;20119;-76
2021/06/10 06:56:42;;;;;;;1.98;1.08;;;;;;;22.72;55.29;101031.75;4433555;32;20103;-74
2021/06/10 06:59:08;;;;;;;3.90;0.90;;;;;;;22.79;54.80;101034.91;4431391;32;20081;-78
2021/06/10 07:01:34;;;;;;;1.77;1.30;;;;;;;22.60;55.34;101044.47;4425434;32;20352;-75
2021/06/10 07:04:00;;;;;;;1.00;0.90;;;;;;;22.50;55.62;101040.28;4429480;32;20098;-76
2021/06/10 07:06:25;;;;;;;1.05;0.90;;;;;;;22.40;55.72;101045.38;4424546;32;20049;-77
2021/06/10 07:08:51;;;;;;;1.35;1.00;;;;;;;22.43;55.50;101041.50;4421085;32;20261;-75
2021/06/10 07:11:17;;;;;;;4.87;0.93;;;;;;;22.39;55.84;101040.16;4421823;32;20080;-75
2021/06/10 07:13:43;;;;;;;1.12;1.00;;;;;;;22.50;55.59;101046.00;4427608;32;20359;-74
2021/06/10 07:16:09;;;;;;;3.42;1.30;;;;;;;22.63;55.36;101047.13;4421130;32;20360;-76
2021/06/10 07:18:35;;;;;;;4.72;1.10;;;;;;;22.93;54.26;101050.34;4424863;32;20560;-77
2021/06/10 07:21:00;;;;;;;1.08;0.90;;;;;;;23.22;53.68;101047.03;4424443;32;20339;-76
2021/06/10 07:23:26;;;;;;;1.85;0.90;;;;;;;23.12;53.21;101048.59;4424880;32;20128;-76
2021/06/10 07:25:52;;;;;;;0.70;0.65;;;;;;;23.22;53.23;101041.28;4423191;32;20407;-75
2021/06/10 07:28:19;;;;;;;2.33;0.90;;;;;;;23.37;52.74;101039.78;4422917;32;20124;-79
2021/06/10 07:30:45;;;;;;;2.72;0.90;;;;;;;23.63;52.38;101048.19;4423233;32;20521;-78
2021/06/10 07:33:10;;;;;;;1.52;0.60;;;;;;;23.66;52.07;101052.88;4425100;32;20080;-77
2021/06/10 07:35:36;;;;;;;2.03;0.80;;;;;;;23.76;51.98;101045.56;4425579;32;20097;-75
2021/06/10 07:38:04;;;;;;;1.73;0.93;;;;;;;23.96;51.41;101053.94;4422429;32;20059;-76
2021/06/10 07:40:31;;;;;;;0.70;0.60;;;;;;;23.96;51.54;101053.16;4422674;32;20476;-77
2021/06/10 07:42:58;;;;;;;2.83;1.10;;;;;;;23.92;51.24;101046.84;4425146;32;20200;-76
2021/06/10 07:45:28;;;;;;;4.03;1.25;;;;;;;23.87;51.13;101051.28;4427404;32;20081;-78
2021/06/10 07:47:55;;;;;;;1.02;0.80;;;;;;;23.82;51.05;101059.91;4424661;32;20050;-77
2021/06/10 07:50:21;;;;;;;0.73;0.73;;;;;;;23.86;50.91;101054.69;4421694;32;20072;-75
2021/06/10 07:52:47;;;;;;;1.50;0.85;;;;;;;24.06;50.27;101058.13;4423350;32;20072;-77
2021/06/10 07:55:13;;;;;;;2.70;1.83;;;;;;;24.30;49.40;101057.56;4423728;32;20119;-75
2021/06/10 07:57:39;;;;;;;2.00;0.93;;;;;;;24.28;49.78;101058.06;4423129;32;20336;-74
2021/06/10 08:00:08;;;;;;;2.25;1.05;;;;;;;24.56;48.70;101052.22;4424528;32;20143;-76
2021/06/10 08:02:34;;;;;;;1.10;0.98;;;;;;;24.87;48.13;101057.63;4425904;32;20069;-75
2021/06/10 08:05:01;;;;;;;4.22;1.83;;;;;;;25.42;46.95;101053.69;4423062;32;20073;-75
2021/06/10 08:07:27;;;;;;;2.10;0.70;;;;;;;25.75;45.92;101050.53;4423593;32;20072;-75
2021/06/10 08:09:53;;;;;;;1.33;0.90;;;;;;;26.13;44.95;101056.00;4416141;32;20081;-74
2021/06/10 08:12:21;;;;;;;3.12;0.90;;;;;;;26.16;44.81;101057.00;4422606;32;20111;-76
2021/06/10 08:14:47;;;;;;;1.75;0.80;;;;;;;26.06;44.74;101053.72;4422551;32;20160;-77
2021/06/10 08:17:13;;;;;;;2.78;1.40;;;;;;;26.11;44.60;101058.62;4422474;32;20145;-76
2021/06/10 08:19:39;;;;;;;5.80;1.10;;;;;;;25.68;45.76;101051.13;4425045;32;20089;-74
2021/06/10 08:22:05;;;;;;;1.92;1.15;;;;;;;26.03;44.92;101062.66;4423056;32;20103;-76
2021/06/10 08:24:30;;;;;;;1.23;0.98;;;;;;;26.12;44.53;101048.66;4420536;32;20086;-77
2021/06/10 08:26:56;;;;;;;1.95;1.37;;;;;;;25.91;44.72;101049.63;4423566;32;20490;-77
2021/06/10 08:29:27;;;;;;;5.90;1.40;;;;;;;25.66;45.49;101048.00;4422628;32;20215;-77
2021/06/10 08:31:54;;;;;;;1.40;1.20;;;;;;;25.77;45.22;101050.81;4421645;32;20085;-78
2021/06/10 08:34:21;;;;;;;4.85;2.15;;;;;;;25.71;45.23;101047.19;4425319;32;20082;-75
2021/06/10 08:36:48;;;;;;;1.40;1.30;;;;;;;25.64;45.48;101047.78;4425034;32;20103;-76
2021/06/10 08:39:14;;;;;;;2.25;1.10;;;;;;;25.63;45.28;101052.75;4425774;32;20509;-77
2021/06/10 08:41:40;;;;;;;2.15;1.27;;;;;;;25.75;45.15;101051.34;4424713;32;20084;-77
2021/06/10 08:44:06;;;;;;;2.70;0.90;;;;;;;25.75;45.01;101048.47;4420500;32;20093;-76
2021/06/10 08:46:35;;;;;;;3.80;1.02;;;;;;;26.00;44.48;101044.31;4422463;32;20126;-74
2021/06/10 08:49:01;;;;;;;2.85;1.35;;;;;;;26.07;44.32;101043.72;4423179;32;20086;-75
2021/06/10 08:51:27;;;;;;;1.58;1.30;;;;;;;25.61;45.22;101043.84;4422334;32;20417;-74
2021/06/10 08:53:56;;;;;;;3.97;1.27;;;;;;;25.72;44.25;101048.75;4422977;32;20148;-76
2021/06/10 08:56:26;;;;;;;2.90;1.40;;;;;;;25.67;44.68;101047.47;4423593;32;20085;-75
2021/06/10 08:58:51;;;;;;;2.87;1.25;;;;;;;25.92;44.17;101049.06;4424111;32;20357;-75
2021/06/10 09:01:17;;;;;;;1.12;1.02;;;;;;;26.01;43.94;101054.53;4419412;32;20084;-76
2021/06/10 09:03:43;;;;;;;2.85;1.17;;;;;;;25.81;44.29;101049.19;4424819;32;20504;-74
2021/06/10 09:06:12;;;;;;;1.55;1.27;;;;;;;25.65;44.96;101046.44;4424533;32;20087;-75
2021/06/10 09:08:41;;;;;;;1.10;1.00;;;;;;;25.65;44.72;101060.84;4423103;32;20088;-74
2021/06/10 09:19:11;;;;;;;1.00;1.00;;;;;;;27.34;41.58;101058.75;4431314;31;676964;-74
2021/06/10 09:34:52;;;;;;;1.30;0.75;;;;;;;28.00;39.15;101055.59;4425845;31;672704;-74
2021/06/10 09:37:32;;;;;;;1.83;0.90;;;;;;;28.00;39.15;101055.59;4435898;32;20500;-75
2021/06/10 09:39:58;;;;;;;5.12;1.10;;;;;;;27.92;39.16;101054.66;4435834;32;20659;-74
2021/06/10 09:42:27;;;;;;;3.83;1.25;;;;;;;27.81;39.62;101051.94;4436686;32;20112;-74
2021/06/10 09:44:57;;;;;;;4.20;1.08;;;;;;;27.65;39.70;101055.91;4433556;32;20531;-74
2021/06/10 10:03:32;;;;;;;4.00;1.20;;;;;;;27.07;41.99;101046.25;4412586;31;683402;-76
2021/06/10 10:06:05;;;;;;;0.65;0.65;;;;;;;27.07;41.99;101046.25;4418471;32;20068;-80
2021/06/10 10:08:32;;;;;;;4.30;1.40;;;;;;;26.79;42.22;101048.72;4421575;32;20590;-77
2021/06/10 10:11:01;;;;;;;5.72;1.15;;;;;;;26.84;42.61;101045.75;4422493;32;20050;-79
2021/06/10 10:13:28;;;;;;;4.60;1.50;;;;;;;26.59;42.74;101046.31;4420321;32;20100;-79
2021/06/10 10:15:57;;;;;;;6.40;1.50;;;;;;;26.34;43.20;101036.87;4422160;32;20481;-79
2021/06/10 10:18:22;;;;;;;2.95;1.12;;;;;;;26.36;43.53;101042.12;4423339;32;20477;-78
2021/06/10 10:20:48;;;;;;;2.22;1.02;;;;;;;26.41;42.98;101038.38;4424209;32;20070;-79
2021/06/10 10:23:14;;;;;;;1.20;1.10;;;;;;;26.43;42.94;101044.41;4420489;32;20104;-81
2021/06/10 10:25:40;;;;;;;3.75;1.02;;;;;;;26.28;43.24;101053.47;4420421;32;20057;-77
2021/06/10 10:28:10;;;;;;;2.47;1.02;;;;;;;26.45;42.84;101041.75;4422468;32;20061;-76
2021/06/10 10:30:38;;;;;;;2.17;1.15;;;;;;;26.36;42.95;101037.13;4419067;32;20081;-79
2021/06/10 10:33:21;;;;;;;3.90;1.10;;;;;;;26.29;42.92;101039.84;4421183;32;20033;-75
2021/06/10 10:36:03;;;;;;;4.47;1.05;;;;;;;26.44;42.76;101040.97;4424622;32;20430;-75
2021/06/10 10:41:11;;;;;;;1.80;1.37;;;;;;;26.40;43.56;101049.16;4392143;32;1395179;-74
2021/06/10 10:43:38;;;;;;;1.80;1.27;;;;;;;26.40;43.56;101049.16;4441738;32;20284;-75
2021/06/10 10:46:06;;;;;;;4.75;1.40;;;;;;;26.00;44.42;101041.44;4440092;32;20116;-75
2021/06/10 10:48:34;;;;;;;2.58;1.25;;;;;;;26.09;44.37;101049.75;4440579;32;20077;-74
2021/06/10 10:51:00;;;;;;;2.45;1.77;;;;;;;26.01;44.44;101056.66;4439897;32;20060;-75
2021/06/10 10:53:29;;;;;;;1.50;0.95;;;;;;;26.49;43.44;101045.91;4439054;32;20069;-75
2021/06/10 10:56:11;;;;;;;3.30;1.48;;;;;;;26.97;42.53;101042.19;4440661;32;20394;-74
2021/06/10 10:58:39;;;;;;;4.07;1.40;;;;;;;27.08;41.69;101060.16;4441498;32;20444;-74
2021/06/10 11:01:08;;;;;;;2.62;1.60;;;;;;;27.09;41.50;101044.34;4434808;32;20076;-78
2021/06/10 11:03:41;;;;;;;1.85;1.17;;;;;;;27.03;41.69;101048.66;4411872;32;20135;-77
2021/06/10 11:17:29;;;;;;;2.80;1.30;;;;;;;26.41;43.44;101041.25;4429519;31;774392;-75
2021/06/10 11:28:16;;;;;;;3.53;1.00;;;;;;;25.62;45.67;101033.09;4431940;31;798549;-76
2021/06/10 11:30:44;;;;;;;3.70;1.17;;;;;;;25.59;46.00;101034.97;4445678;32;20067;-75
2021/06/10 11:36:04;;;;;;;4.20;1.20;;;;;;;26.29;44.54;101028.31;4419098;32;902895;-75
2021/06/10 11:38:33;;;;;;;1.37;1.08;;;;;;;26.29;44.54;101028.31;4436814;32;20053;-75
2021/06/10 11:41:06;;;;;;;3.53;0.90;;;;;;;26.14;44.27;101030.81;4433717;32;21273;-77
2021/06/10 11:43:35;;;;;;;3.93;1.07;;;;;;;26.49;43.65;101019.94;4429687;32;20098;-77
2021/06/10 11:46:03;;;;;;;2.83;1.05;;;;;;;25.94;44.81;101026.25;4429844;32;20490;-78
2021/06/10 11:51:19;;;;;;;1.20;1.10;;;;;;;26.38;44.34;101025.06;4420092;31;805509;-78
2021/06/10 11:53:45;;;;;;;2.80;1.52;;;;;;;26.38;44.34;101025.06;4441048;32;20113;-77
2021/06/10 11:56:11;;;;;;;2.40;0.80;;;;;;;26.30;44.44;101012.53;4443315;32;20073;-77
2021/06/10 11:58:37;;;;;;;1.10;0.80;;;;;;;26.65;43.11;101016.09;4446573;32;20481;-78
2021/06/10 12:01:12;;;;;;;1.42;1.00;;;;;;;27.28;41.25;101012.59;4442396;32;20128;-76
2021/06/10 12:03:40;;;;;;;2.35;1.00;;;;;;;28.18;39.80;101002.66;4429317;32;20064;-76
2021/06/10 12:06:09;;;;;;;1.35;0.90;;;;;;;28.84;38.79;101012.12;4429194;32;20460;-81
2021/06/10 12:08:36;;;;;;;0.85;0.70;;;;;;;28.81;38.33;100995.84;4443400;32;20060;-80
2021/06/10 12:11:07;;;;;;;4.28;1.10;;;;;;;28.73;38.52;100992.84;4430522;32;20162;-79
2021/06/10 12:16:13;;;;;;;3.33;0.70;;;;;;;28.76;39.21;100990.94;4396402;32;1403138;-79
2021/06/10 12:18:41;;;;;;;4.15;0.93;;;;;;;28.76;39.21;100990.94;4441462;32;20156;-77
2021/06/10 12:21:10;;;;;;;1.50;1.00;;;;;;;27.98;40.28;101003.28;4442614;32;20084;-80
2021/06/10 12:26:16;;;;;;;1.10;1.00;;;;;;;28.52;40.05;100994.09;4424314;31;680176;-77
2021/06/10 12:28:48;;;;;;;1.48;0.95;;;;;;;28.52;40.05;100994.09;4429846;32;20079;-80
2021/06/10 12:33:54;;;;;;;1.55;0.70;;;;;;;28.84;38.85;100978.09;4434426;31;667684;-77
2021/06/10 12:41:41;;;;;;;2.03;0.90;;;;;;;28.74;39.21;100977.03;4423216;31;685270;-77
2021/06/10 12:47:02;;;;;;;2.47;1.00;;;;;;;29.19;38.14;100967.31;4425959;31;675722;-74
2021/06/10 12:54:57;;;;;;;1.95;0.82;;;;;;;29.01;38.74;100981.41;4421319;31;679401;-73